Tzoanna Vi — SYHY — position and weather

sailwx.info

Track history (hours):
 
Tides and Currents Weather Stations Pressure Air Temp Water Temp Dewpoint Dewpoint Depression Visibility Wind Speed Wind Dir Waves Ship Positions

Tzoanna Vi

Last reported at 2015-Mar-02 13:24 UTC. Time now 2015-Mar-05 10:25 UTC.
Position N 37°57' E 024°19'.

Length 84 m; draft 5.5 m.

Type: Cargo ship. MMSI: 237991700.

Date/timePositionNaut miles runAvg speedWind from/ knotsBaromVisibWave heightAir tempDewpointWater temp
2015-Mar-02 13:24N 37°57' E 024°19'7 7.9
2015-Mar-02 12:28N 38°01' E 024°11'8 8.7
2015-Mar-02 11:33N 38°08' E 024°07'0 0.0
2015-Feb-28 07:33N 38°08' E 024°07'  
2015-Feb-26 01:10N 38°08' E 024°09'1 0.1
2015-Feb-25 03:10N 38°07' E 024°07'610.4
2015-Feb-25 02:33N 38°02' E 024°11'18 8.7
2015-Feb-25 00:27N 37°57' E 024°33'21 9.3
2015-Feb-24 22:13N 38°17' E 024°31'22 0.4
2015-Feb-22 18:29N 37°55' E 024°25'7 7.6
2015-Feb-22 17:31N 37°57' E 024°16'7 6.8
2015-Feb-22 16:32N 38°02' E 024°10'8 8.3
2015-Feb-22 15:33N 38°09' E 024°06'10 8.7
2015-Feb-22 14:22N 38°19' E 024°01'16 0.8
2015-Feb-21 18:31N 38°04' E 024°09'  
Track history (hours):
 
Tides and Currents Weather Stations Pressure Air Temp Water Temp Dewpoint Dewpoint Depression Visibility Wind Speed Wind Dir Waves Ship Positions

Tzoanna Vi

Last reported at 2015-Mar-02 13:24 UTC. Time now 2015-Mar-05 10:25 UTC.
Position N 37°57' E 024°19'.

Length 84 m; draft 5.5 m.

Type: Cargo ship. MMSI: 237991700.

Date/timePositionNaut miles runAvg speedWind from/ knotsBaromVisibWave heightAir tempDewpointWater temp
2015-Mar-02 13:24N 37°57' E 024°19'7 7.9
2015-Mar-02 12:28N 38°01' E 024°11'8 8.7
2015-Mar-02 11:33N 38°08' E 024°07'0 0.0
2015-Feb-28 07:33N 38°08' E 024°07'  
2015-Feb-26 01:10N 38°08' E 024°09'1 0.1
2015-Feb-25 03:10N 38°07' E 024°07'610.4
2015-Feb-25 02:33N 38°02' E 024°11'18 8.7
2015-Feb-25 00:27N 37°57' E 024°33'21 9.3
2015-Feb-24 22:13N 38°17' E 024°31'22 0.4
2015-Feb-22 18:29N 37°55' E 024°25'7 7.6
2015-Feb-22 17:31N 37°57' E 024°16'7 6.8
2015-Feb-22 16:32N 38°02' E 024°10'8 8.3
2015-Feb-22 15:33N 38°09' E 024°06'10 8.7
2015-Feb-22 14:22N 38°19' E 024°01'16 0.8
2015-Feb-21 18:31N 38°04' E 024°09'  

Dump ship's entire track history